createdAt,value
2019-03-20T00:02:30.700Z,70.60
2019-03-20T00:05:01.292Z,69.74
2019-03-20T00:07:32.233Z,69.68
2019-03-20T00:10:02.847Z,70.27
2019-03-20T00:12:33.274Z,70.51
2019-03-20T00:15:03.943Z,70.43
2019-03-20T00:17:34.610Z,70.31
2019-03-20T00:20:05.482Z,70.41
2019-03-20T00:22:35.999Z,69.82
2019-03-20T00:25:07.343Z,69.47
2019-03-20T00:27:37.887Z,69.63
2019-03-20T00:30:09.046Z,70.02
2019-03-20T00:32:39.940Z,70.57
2019-03-20T00:35:10.835Z,70.85
2019-03-20T00:37:41.481Z,71.01
2019-03-20T00:40:13.183Z,71.62
2019-03-20T00:42:43.903Z,72.45
2019-03-20T00:45:14.616Z,72.61
2019-03-20T00:47:45.167Z,71.59
2019-03-20T00:50:18.746Z,71.49
2019-03-20T00:52:49.394Z,71.57
2019-03-20T00:55:20.273Z,71.63
2019-03-20T00:57:50.912Z,71.72
2019-03-20T01:00:21.623Z,72.02
2019-03-20T01:02:52.422Z,71.42
2019-03-20T01:05:23.695Z,71.27
2019-03-20T01:07:54.486Z,71.08
2019-03-20T01:10:25.157Z,71.08
2019-03-20T01:12:58.316Z,71.27
2019-03-20T01:15:29.142Z,71.61
2019-03-20T01:17:59.790Z,72.16
2019-03-20T01:20:31.207Z,72.88
2019-03-20T01:23:01.915Z,73.32
2019-03-20T01:25:35.047Z,73.55
2019-03-20T01:28:05.345Z,73.72
2019-03-20T01:30:37.072Z,73.99
2019-03-20T01:33:09.335Z,74.31
2019-03-20T01:35:40.360Z,74.63
2019-03-20T01:38:11.186Z,74.73
2019-03-20T01:40:41.832Z,74.51
2019-03-20T01:43:12.512Z,74.32
2019-03-20T01:45:43.374Z,74.13
2019-03-20T01:48:13.973Z,73.90
2019-03-20T01:50:46.440Z,73.97
2019-03-20T01:53:17.017Z,73.97
2019-03-20T01:55:47.682Z,74.09
2019-03-20T01:58:19.975Z,74.28
2019-03-20T02:00:50.505Z,74.25
2019-03-20T02:03:21.004Z,73.93
2019-03-20T02:05:51.506Z,73.81
2019-03-20T02:08:22.055Z,73.03
2019-03-20T02:10:53.701Z,70.49
2019-03-20T02:13:24.240Z,68.54
2019-03-20T02:15:54.639Z,67.20
2019-03-20T02:18:25.072Z,66.53
2019-03-20T02:20:55.675Z,65.16
2019-03-20T02:23:26.242Z,64.67
2019-03-20T02:25:56.719Z,63.09
2019-03-20T02:28:28.607Z,62.64
2019-03-20T02:31:01.797Z,61.94
2019-03-20T02:33:32.718Z,61.16
2019-03-20T02:36:03.567Z,61.02
2019-03-20T02:38:34.233Z,60.58
2019-03-20T02:41:06.434Z,60.25
2019-03-20T02:43:37.049Z,59.51
2019-03-20T02:46:08.815Z,59.76
2019-03-20T02:48:39.408Z,60.09
2019-03-20T02:51:10.236Z,59.70
2019-03-20T02:53:42.400Z,59.84
2019-03-20T02:56:13.002Z,60.16
2019-03-20T02:58:43.417Z,60.00
2019-03-20T03:01:14.204Z,59.72
2019-03-20T03:03:46.494Z,60.66
2019-03-20T03:06:17.095Z,61.22
2019-03-20T03:08:47.854Z,62.47
2019-03-20T03:11:18.554Z,63.28
2019-03-20T03:13:48.994Z,64.50
2019-03-20T03:16:19.778Z,64.77
2019-03-20T03:18:53.095Z,65.48
2019-03-20T03:21:23.666Z,65.81
2019-03-20T03:23:54.379Z,66.14
2019-03-20T03:26:25.189Z,66.36
2019-03-20T03:28:56.151Z,66.88
2019-03-20T03:31:26.874Z,66.93
2019-03-20T03:33:57.483Z,67.12
2019-03-20T03:36:28.302Z,67.36
2019-03-20T03:38:59.237Z,67.40
2019-03-20T03:41:29.825Z,67.56
2019-03-20T03:44:00.547Z,65.86
2019-03-20T03:46:31.370Z,65.96
2019-03-20T03:49:02.057Z,66.78
2019-03-20T03:51:33.123Z,65.26
2019-03-20T03:54:06.139Z,64.48
2019-03-20T03:56:36.604Z,63.41
2019-03-20T03:59:07.226Z,63.03
2019-03-20T04:01:37.988Z,62.48
2019-03-20T04:04:08.751Z,62.05
2019-03-20T04:06:39.247Z,61.85
2019-03-20T04:09:10.039Z,61.68
2019-03-20T04:11:42.585Z,61.50
2019-03-20T04:14:14.657Z,61.59
2019-03-20T04:16:45.342Z,62.00
2019-03-20T04:19:16.088Z,61.84
2019-03-20T04:21:46.862Z,63.11
2019-03-20T04:24:17.360Z,62.71
2019-03-20T04:26:47.948Z,62.53
2019-03-20T04:29:18.902Z,63.00
2019-03-20T04:31:49.384Z,63.94
2019-03-20T04:34:19.934Z,65.13
2019-03-20T04:36:50.513Z,65.36
2019-03-20T04:39:21.131Z,65.69
2019-03-20T04:41:52.550Z,65.86
2019-03-20T04:44:23.179Z,66.33
2019-03-20T04:46:54.943Z,66.33
2019-03-20T04:49:25.696Z,66.88
2019-03-20T04:51:56.147Z,67.20
2019-03-20T04:54:26.610Z,67.23
2019-03-20T04:56:57.313Z,67.31
2019-03-20T04:59:28.156Z,67.52
2019-03-20T05:01:58.840Z,67.77
2019-03-20T05:04:29.628Z,67.80
2019-03-20T05:07:00.494Z,66.02
2019-03-20T05:09:30.973Z,66.06
2019-03-20T05:12:01.858Z,65.65
2019-03-20T05:14:32.406Z,63.96
2019-03-20T05:17:03.421Z,63.51
2019-03-20T05:19:35.967Z,62.60
2019-03-20T05:22:07.028Z,61.62
2019-03-20T05:24:37.549Z,60.93
2019-03-20T05:27:08.185Z,60.67
2019-03-20T05:29:38.914Z,60.50
2019-03-20T05:32:09.856Z,60.30
2019-03-20T05:34:40.761Z,60.09
2019-03-20T05:37:11.147Z,59.54
2019-03-20T05:39:42.864Z,59.25
2019-03-20T05:42:13.445Z,58.71
2019-03-20T05:44:44.216Z,58.31
2019-03-20T05:47:15.153Z,58.05
2019-03-20T05:49:46.016Z,58.15
2019-03-20T05:52:18.057Z,57.85
2019-03-20T05:54:49.644Z,57.47
2019-03-20T05:57:20.543Z,56.66
2019-03-20T05:59:51.348Z,56.88
2019-03-20T06:02:22.283Z,56.89
2019-03-20T06:04:52.865Z,56.47
2019-03-20T06:07:23.716Z,55.11
2019-03-20T06:09:54.259Z,54.77
2019-03-20T06:12:25.008Z,55.82
2019-03-20T06:14:57.176Z,55.95
2019-03-20T06:17:27.799Z,55.51
2019-03-20T06:19:58.416Z,55.45
2019-03-20T06:22:31.704Z,54.06
2019-03-20T06:25:02.336Z,54.02
2019-03-20T06:27:36.122Z,52.74
2019-03-20T06:30:07.699Z,53.04
2019-03-20T06:32:38.582Z,53.77
2019-03-20T06:35:09.863Z,54.16
2019-03-20T06:37:40.413Z,54.10
2019-03-20T06:40:11.592Z,52.66
2019-03-20T06:42:42.374Z,53.05
2019-03-20T06:45:13.636Z,52.90
2019-03-20T06:47:44.105Z,52.25
2019-03-20T06:50:15.798Z,52.02
2019-03-20T06:52:46.498Z,51.92
2019-03-20T06:55:17.285Z,51.31
2019-03-20T06:57:47.584Z,51.98
2019-03-20T07:01:00.990Z,51.88
2019-03-20T07:03:38.133Z,51.79
2019-03-20T07:06:33.691Z,50.67
2019-03-20T07:09:34.051Z,49.73
2019-03-20T07:12:04.636Z,50.83
2019-03-20T07:14:35.031Z,50.21
2019-03-20T07:17:05.820Z,51.18
2019-03-20T07:19:38.097Z,50.34
2019-03-20T07:22:08.666Z,49.28
2019-03-20T07:24:39.319Z,49.13
2019-03-20T07:27:09.976Z,46.93
2019-03-20T07:29:43.976Z,47.24
2019-03-20T07:32:14.864Z,47.17
2019-03-20T07:34:45.345Z,46.09
2019-03-20T07:37:16.031Z,46.54
2019-03-20T07:39:46.707Z,47.33
2019-03-20T07:42:17.337Z,46.82
2019-03-20T07:44:47.931Z,46.91
2019-03-20T07:47:18.421Z,45.04
2019-03-20T07:49:49.129Z,45.25
2019-03-20T07:52:20.090Z,42.26
2019-03-20T07:54:50.639Z,40.89
2019-03-20T07:57:21.108Z,40.09
2019-03-20T07:59:51.956Z,35.31
2019-03-20T08:02:23.041Z,33.70
2019-03-20T08:04:53.467Z,32.14
2019-03-20T08:07:45.848Z,33.44
2019-03-20T08:10:30.275Z,34.92
2019-03-20T08:13:33.651Z,35.11
2019-03-20T08:17:06.355Z,35.69
2019-03-20T08:19:53.783Z,37.21
2019-03-20T08:23:20.990Z,37.48
2019-03-20T08:25:51.624Z,36.34
2019-03-20T08:28:22.054Z,35.51
2019-03-20T08:30:52.587Z,33.26
2019-03-20T08:33:22.638Z,32.48
2019-03-20T08:35:52.487Z,33.29
2019-03-20T08:38:22.476Z,30.18
2019-03-20T08:40:55.073Z,27.91
2019-03-20T08:43:25.156Z,26.92
2019-03-20T08:49:33.575Z,25.32
2019-03-20T08:52:03.899Z,26.15
2019-03-20T08:54:34.095Z,27.13
2019-03-20T08:57:04.393Z,25.79
2019-03-20T09:03:57.487Z,24.02
2019-03-20T09:06:27.754Z,23.01
2019-03-20T09:08:58.069Z,22.50
2019-03-20T09:11:28.405Z,21.81
2019-03-20T09:13:58.766Z,22.40
2019-03-20T09:16:29.074Z,21.13
2019-03-20T09:19:02.388Z,20.05
2019-03-20T09:21:32.722Z,19.24
2019-03-20T09:24:05.719Z,18.47
2019-03-20T09:26:36.085Z,17.82
2019-03-20T09:29:17.958Z,16.06
2019-03-20T09:31:38.545Z,15.52
2019-03-20T09:34:08.572Z,14.81
2019-03-20T09:36:43.014Z,15.94
2019-03-20T09:39:13.804Z,15.82
2019-03-20T09:41:44.499Z,16.45
2019-03-20T09:44:16.920Z,15.69
2019-03-20T09:46:46.967Z,15.79
2019-03-20T09:49:43.616Z,13.98
2019-03-20T09:52:13.447Z,14.35
2019-03-20T09:54:43.059Z,13.74
2019-03-20T09:57:12.792Z,14.22
2019-03-20T09:59:43.019Z,15.07
2019-03-20T10:02:13.418Z,14.21
2019-03-20T10:04:43.280Z,15.34
2019-03-20T10:07:19.067Z,15.72
2019-03-20T10:09:48.795Z,15.08
2019-03-20T10:12:19.203Z,14.21
2019-03-20T10:14:49.375Z,13.64
2019-03-20T10:17:19.823Z,13.08
2019-03-20T10:19:49.716Z,13.65
2019-03-20T10:22:20.065Z,13.45
2019-03-20T10:24:53.154Z,13.65
2019-03-20T10:27:22.899Z,12.94
2019-03-20T10:29:57.104Z,12.39
2019-03-20T10:32:27.347Z,12.99
2019-03-20T10:34:57.958Z,12.89
2019-03-20T10:37:27.894Z,13.26
2019-03-20T10:39:57.902Z,13.06
2019-03-20T10:42:27.932Z,12.35
2019-03-20T10:44:57.678Z,11.88
2019-03-20T10:47:27.914Z,12.66
2019-03-20T10:49:58.187Z,13.62
2019-03-20T10:52:28.290Z,14.23
2019-03-20T10:54:58.021Z,13.76
2019-03-20T10:57:27.761Z,13.42
2019-03-20T10:59:57.813Z,13.79
2019-03-20T11:02:27.641Z,13.77
2019-03-20T11:04:57.327Z,13.14
2019-03-20T11:07:27.143Z,12.85
2019-03-20T11:09:57.317Z,12.26
2019-03-20T11:12:27.392Z,12.54
2019-03-20T11:14:57.601Z,14.08
2019-03-20T11:17:27.609Z,13.42
2019-03-20T11:19:57.658Z,14.32
2019-03-20T11:22:27.492Z,14.05
2019-03-20T11:24:57.579Z,13.37
2019-03-20T11:27:27.795Z,14.80
2019-03-20T11:29:57.804Z,15.05
2019-03-20T11:32:27.610Z,14.68
2019-03-20T11:34:57.768Z,14.85
2019-03-20T11:37:27.694Z,15.63
2019-03-20T11:39:57.507Z,15.82
2019-03-20T11:42:27.831Z,16.02
2019-03-20T11:44:57.974Z,15.46
2019-03-20T11:47:28.407Z,15.08
2019-03-20T11:49:58.674Z,15.59
2019-03-20T11:52:29.030Z,15.78
2019-03-20T11:54:59.318Z,15.17
2019-03-20T11:57:29.459Z,15.52
2019-03-20T11:59:59.856Z,14.66
2019-03-20T12:02:30.077Z,14.96
2019-03-20T12:05:00.408Z,14.55
2019-03-20T12:07:30.726Z,14.44
2019-03-20T12:10:01.013Z,13.70
2019-03-20T12:12:31.215Z,13.03
2019-03-20T12:15:01.398Z,12.90
2019-03-20T12:17:31.579Z,13.27
2019-03-20T12:20:01.694Z,13.99
2019-03-20T12:22:31.769Z,14.00
2019-03-20T12:25:02.110Z,13.49
2019-03-20T12:27:31.855Z,13.35
2019-03-20T12:30:02.387Z,12.91
2019-03-20T12:32:32.655Z,13.27
2019-03-20T12:35:02.927Z,13.50
2019-03-20T12:37:33.358Z,14.59
2019-03-20T12:40:03.767Z,14.47
2019-03-20T12:42:33.839Z,16.40
2019-03-20T12:45:04.070Z,16.16
2019-03-20T12:47:34.044Z,16.28
2019-03-20T12:50:04.611Z,16.07
2019-03-20T12:52:34.708Z,16.70
2019-03-20T12:55:04.944Z,17.24
2019-03-20T12:57:34.719Z,17.08
2019-03-20T13:00:05.883Z,16.92
2019-03-20T13:02:36.293Z,16.83
2019-03-20T13:05:07.311Z,16.34
2019-03-20T13:07:37.371Z,17.01
2019-03-20T13:10:08.653Z,17.13
2019-03-20T13:12:38.641Z,17.96
2019-03-20T13:15:10.394Z,18.91
2019-03-20T13:17:40.438Z,18.18
2019-03-20T13:20:11.581Z,18.89
2019-03-20T13:22:41.680Z,19.03
2019-03-20T13:25:12.848Z,19.53
2019-03-20T13:27:43.292Z,21.24
2019-03-20T13:30:20.491Z,20.82
2019-03-20T13:32:48.693Z,21.52
2019-03-20T13:35:19.372Z,21.57
2019-03-20T13:37:49.477Z,21.73
2019-03-20T13:40:19.573Z,23.17
2019-03-20T13:42:49.777Z,23.37
2019-03-20T13:45:20.438Z,24.84
2019-03-20T13:47:50.632Z,25.85
2019-03-20T13:50:21.497Z,26.87
2019-03-20T13:52:51.892Z,28.06
2019-03-20T13:55:22.433Z,29.15
2019-03-20T13:57:53.041Z,29.05
2019-03-20T14:00:24.069Z,30.08
2019-03-20T14:02:54.458Z,31.47
2019-03-20T14:05:25.065Z,32.70
2019-03-20T14:07:55.805Z,33.75
2019-03-20T14:10:26.231Z,33.57
2019-03-20T14:12:56.622Z,33.22
2019-03-20T14:15:26.695Z,34.00
2019-03-20T14:17:56.990Z,35.65
2019-03-20T14:20:27.647Z,35.26
2019-03-20T14:22:57.458Z,35.50
2019-03-20T14:25:27.552Z,35.84
2019-03-20T14:27:58.273Z,35.74
2019-03-20T14:30:28.550Z,36.04
2019-03-20T14:32:58.726Z,35.86
2019-03-20T14:35:29.055Z,36.98
2019-03-20T14:37:59.449Z,37.84
2019-03-20T14:40:37.434Z,37.13
2019-03-20T14:43:02.320Z,37.52
2019-03-20T14:45:32.872Z,38.06
2019-03-20T14:48:02.979Z,39.19
2019-03-20T14:50:32.922Z,38.68
2019-03-20T14:53:02.992Z,39.52
2019-03-20T14:55:33.368Z,39.82
2019-03-20T14:58:03.461Z,40.42
2019-03-20T15:00:33.858Z,40.86
2019-03-20T15:03:04.156Z,41.75
2019-03-20T15:05:34.544Z,42.69
2019-03-20T15:08:04.699Z,43.73
2019-03-20T15:10:34.805Z,44.62
2019-03-20T15:13:05.249Z,45.52
2019-03-20T15:15:41.196Z,46.04
2019-03-20T15:18:11.765Z,46.16
2019-03-20T15:20:42.030Z,46.87
2019-03-20T15:23:12.045Z,47.35
2019-03-20T15:25:42.349Z,47.92
2019-03-20T15:28:12.499Z,47.60
2019-03-20T15:30:42.754Z,47.95
2019-03-20T15:33:12.794Z,49.43
2019-03-20T15:35:43.152Z,50.23
2019-03-20T15:38:13.624Z,50.52
2019-03-20T15:40:44.148Z,50.35
2019-03-20T15:43:14.097Z,50.65
2019-03-20T15:45:44.128Z,50.54
2019-03-20T15:48:14.397Z,51.13
2019-03-20T15:50:44.584Z,51.21
2019-03-20T15:53:14.783Z,51.16
2019-03-20T15:55:45.340Z,51.28
2019-03-20T15:58:15.581Z,51.61
2019-03-20T16:00:45.901Z,51.41
2019-03-20T16:03:16.970Z,50.92
2019-03-20T16:05:47.698Z,50.25
2019-03-20T16:08:18.099Z,50.68
2019-03-20T16:10:48.456Z,50.36
2019-03-20T16:13:19.002Z,50.70
2019-03-20T16:15:49.241Z,50.49
2019-03-20T16:18:19.478Z,50.96
2019-03-20T16:20:49.853Z,51.41
2019-03-20T16:23:20.338Z,52.15
2019-03-20T16:25:50.665Z,52.52
2019-03-20T16:28:20.687Z,52.70
2019-03-20T16:30:50.681Z,52.97
2019-03-20T16:33:21.260Z,53.54
2019-03-20T16:35:51.816Z,54.08
2019-03-20T16:38:22.333Z,54.70
2019-03-20T16:40:52.830Z,55.28
2019-03-20T16:43:23.087Z,55.60
2019-03-20T16:45:53.374Z,55.30
2019-03-20T16:48:23.794Z,55.85
2019-03-20T16:50:54.466Z,55.78
2019-03-20T16:53:24.935Z,55.69
2019-03-20T16:55:56.493Z,55.51
2019-03-20T16:58:26.904Z,55.81
2019-03-20T17:00:57.469Z,55.97
2019-03-20T17:03:27.529Z,56.06
2019-03-20T17:05:57.725Z,55.53
2019-03-20T17:08:28.122Z,55.75
2019-03-20T17:10:58.547Z,56.10
2019-03-20T17:13:29.076Z,55.95
2019-03-20T17:15:59.304Z,55.73
2019-03-20T17:18:29.820Z,55.84
2019-03-20T17:20:59.937Z,55.63
2019-03-20T17:23:30.349Z,55.44
2019-03-20T17:26:00.890Z,55.54
2019-03-20T17:28:31.653Z,55.57
2019-03-20T17:31:02.055Z,55.31
2019-03-20T17:33:32.294Z,55.01
2019-03-20T17:36:02.747Z,55.14
2019-03-20T17:38:33.011Z,55.54
2019-03-20T17:41:03.510Z,55.90
2019-03-20T17:43:34.093Z,55.88
2019-03-20T17:46:05.098Z,56.22
2019-03-20T17:48:35.655Z,55.46
2019-03-20T17:51:06.285Z,55.06
2019-03-20T17:53:37.044Z,54.85
2019-03-20T17:56:07.622Z,55.34
2019-03-20T17:58:38.993Z,55.46
2019-03-20T18:01:09.405Z,54.73
2019-03-20T18:03:39.485Z,54.60
2019-03-20T18:06:09.749Z,54.22
2019-03-20T18:08:41.739Z,54.79
2019-03-20T18:11:12.113Z,54.64
2019-03-20T18:13:42.427Z,54.84
2019-03-20T18:16:12.835Z,54.19
2019-03-20T18:18:43.223Z,54.15
2019-03-20T18:21:13.521Z,54.17
2019-03-20T18:23:43.665Z,54.17
2019-03-20T18:26:14.118Z,54.23
2019-03-20T18:28:44.567Z,53.76
2019-03-20T18:31:15.509Z,53.66
2019-03-20T18:33:45.874Z,53.40
2019-03-20T18:36:16.315Z,53.44
2019-03-20T18:38:46.529Z,53.24
2019-03-20T18:41:17.284Z,53.21
2019-03-20T18:43:47.752Z,53.32
2019-03-20T18:46:18.410Z,53.27
2019-03-20T18:48:48.986Z,52.93
2019-03-20T18:51:19.506Z,53.20
2019-03-20T18:53:50.419Z,52.75
2019-03-20T18:56:20.607Z,52.87
2019-03-20T18:58:51.184Z,53.01
2019-03-20T19:01:21.855Z,52.98
2019-03-20T19:03:52.312Z,52.35
2019-03-20T19:06:25.229Z,52.68
2019-03-20T19:08:55.772Z,52.37
2019-03-20T19:11:26.323Z,52.68
2019-03-20T19:13:56.458Z,52.94
2019-03-20T19:16:26.932Z,53.11
2019-03-20T19:18:57.607Z,53.92
2019-03-20T19:21:28.096Z,54.88
2019-03-20T19:23:58.454Z,54.53
2019-03-20T19:26:31.042Z,54.56
2019-03-20T19:29:01.347Z,54.80
2019-03-20T19:31:31.817Z,55.24
2019-03-20T19:34:02.207Z,54.96
2019-03-20T19:36:32.630Z,54.24
2019-03-20T19:39:02.924Z,54.77
2019-03-20T19:41:34.405Z,54.36
2019-03-20T19:44:04.823Z,53.62
2019-03-20T19:46:35.401Z,53.18
2019-03-20T19:49:05.831Z,53.09
2019-03-20T19:51:36.036Z,51.66
2019-03-20T19:54:06.599Z,51.36
2019-03-20T19:56:37.154Z,50.87
2019-03-20T19:59:07.399Z,49.65
2019-03-20T20:01:37.654Z,49.60
2019-03-20T20:04:08.827Z,49.90
2019-03-20T20:06:38.971Z,49.84
2019-03-20T20:09:10.023Z,49.20
2019-03-20T20:11:40.676Z,48.87
2019-03-20T20:14:10.867Z,49.06
2019-03-20T20:16:40.991Z,48.76
2019-03-20T20:19:11.260Z,49.23
2019-03-20T20:21:41.701Z,48.91
2019-03-20T20:24:11.721Z,48.93
2019-03-20T20:26:42.881Z,48.96
2019-03-20T20:29:13.717Z,49.20
2019-03-20T20:31:44.247Z,49.21
2019-03-20T20:34:14.498Z,49.11
2019-03-20T20:36:44.826Z,48.57
2019-03-20T20:39:15.224Z,48.92
2019-03-20T20:41:45.425Z,48.70
2019-03-20T20:44:15.745Z,48.43
2019-03-20T20:46:46.259Z,48.80
2019-03-20T20:49:16.647Z,48.88
2019-03-20T20:51:47.020Z,48.52
2019-03-20T20:54:17.327Z,48.77
2019-03-20T20:56:47.730Z,48.62
2019-03-20T20:59:18.037Z,48.69
2019-03-20T21:01:48.393Z,48.89
2019-03-20T21:04:18.938Z,48.48
2019-03-20T21:06:49.183Z,47.98
2019-03-20T21:09:19.552Z,47.96
2019-03-20T21:11:50.209Z,48.30
2019-03-20T21:14:20.609Z,48.08
2019-03-20T21:16:51.343Z,47.83
2019-03-20T21:19:40.881Z,47.65
2019-03-20T21:22:51.592Z,47.46
2019-03-20T21:25:23.376Z,47.97
2019-03-20T21:29:07.539Z,47.60
2019-03-20T21:31:45.210Z,47.25
2019-03-20T21:35:11.309Z,47.47
2019-03-20T21:38:09.595Z,47.85
2019-03-20T21:40:49.910Z,47.91
2019-03-20T21:43:44.251Z,47.98
2019-03-20T21:46:49.990Z,48.09
2019-03-20T21:49:20.846Z,47.41
2019-03-20T21:51:51.689Z,48.30
2019-03-20T21:55:02.688Z,47.83
2019-03-20T21:57:53.567Z,48.42
2019-03-20T22:00:55.831Z,49.54
2019-03-20T22:03:26.628Z,48.84
2019-03-20T22:06:43.382Z,46.88
2019-03-20T22:09:37.828Z,51.64
2019-03-20T22:12:30.832Z,53.22
2019-03-20T22:15:15.706Z,54.24
2019-03-20T22:18:26.010Z,54.34
2019-03-20T22:21:18.855Z,54.85
2019-03-20T22:24:09.414Z,54.96
2019-03-20T22:27:17.790Z,54.55
2019-03-20T22:29:48.526Z,54.29
2019-03-20T22:33:01.085Z,54.29
2019-03-20T22:35:51.221Z,54.26
2019-03-20T22:39:00.692Z,54.19
2019-03-20T22:41:54.470Z,54.24
2019-03-20T22:44:25.281Z,54.16
2019-03-20T22:47:34.867Z,54.42
2019-03-20T22:50:23.526Z,54.68
2019-03-20T22:53:34.197Z,54.90
2019-03-20T22:56:37.394Z,55.24
2019-03-20T22:59:08.428Z,55.53
2019-03-20T23:01:47.849Z,56.96
2019-03-20T23:04:26.163Z,57.79
2019-03-20T23:06:57.339Z,57.86
2019-03-20T23:09:28.193Z,57.93
2019-03-20T23:12:01.029Z,58.16
2019-03-20T23:14:32.338Z,58.59
2019-03-20T23:17:03.188Z,58.34
2019-03-20T23:19:34.036Z,58.14
2019-03-20T23:22:05.124Z,58.05
2019-03-20T23:24:36.176Z,57.77
2019-03-20T23:27:10.083Z,58.66
2019-03-20T23:29:41.224Z,59.19
2019-03-20T23:32:12.487Z,58.35
2019-03-20T23:34:43.622Z,58.80
2019-03-20T23:37:14.340Z,58.94
2019-03-20T23:39:45.438Z,59.14
2019-03-20T23:42:16.602Z,58.75
2019-03-20T23:44:47.427Z,59.11
2019-03-20T23:47:21.454Z,58.97
2019-03-20T23:49:52.346Z,59.07
2019-03-20T23:52:23.574Z,60.32
2019-03-20T23:54:56.594Z,60.08
2019-03-20T23:57:27.768Z,60.21
